sensor_id;sensor_type;location;lat;lon;timestamp;P1;durP1;ratioP1;P2;durP2;ratioP2
8652;SDS011;4364;52.426;9.424;2023-01-31T00:01:24;21.03;;;3.70;;
8652;SDS011;4364;52.426;9.424;2023-01-31T00:03:53;18.43;;;3.73;;
8652;SDS011;4364;52.426;9.424;2023-01-31T00:06:22;17.00;;;3.40;;
8652;SDS011;4364;52.426;9.424;2023-01-31T00:08:51;14.23;;;3.33;;
8652;SDS011;4364;52.426;9.424;2023-01-31T00:11:19;10.10;;;2.70;;
8652;SDS011;4364;52.426;9.424;2023-01-31T00:13:48;7.83;;;2.40;;
8652;SDS011;4364;52.426;9.424;2023-01-31T00:16:15;13.13;;;2.73;;
8652;SDS011;4364;52.426;9.424;2023-01-31T00:18:42;14.43;;;2.90;;
8652;SDS011;4364;52.426;9.424;2023-01-31T00:21:10;14.37;;;3.03;;
8652;SDS011;4364;52.426;9.424;2023-01-31T00:23:38;17.67;;;2.70;;
8652;SDS011;4364;52.426;9.424;2023-01-31T00:26:10;13.83;;;3.63;;
8652;SDS011;4364;52.426;9.424;2023-01-31T00:28:39;17.90;;;3.10;;
8652;SDS011;4364;52.426;9.424;2023-01-31T00:31:06;26.43;;;3.33;;
8652;SDS011;4364;52.426;9.424;2023-01-31T00:33:34;14.33;;;3.10;;
8652;SDS011;4364;52.426;9.424;2023-01-31T00:36:04;13.97;;;3.10;;
8652;SDS011;4364;52.426;9.424;2023-01-31T00:38:32;18.93;;;3.03;;
8652;SDS011;4364;52.426;9.424;2023-01-31T00:40:59;20.93;;;4.20;;
8652;SDS011;4364;52.426;9.424;2023-01-31T00:43:29;12.77;;;2.90;;
8652;SDS011;4364;52.426;9.424;2023-01-31T00:45:57;15.33;;;3.23;;
8652;SDS011;4364;52.426;9.424;2023-01-31T00:48:24;10.83;;;2.90;;
8652;SDS011;4364;52.426;9.424;2023-01-31T00:50:50;19.07;;;3.30;;
8652;SDS011;4364;52.426;9.424;2023-01-31T00:53:17;13.77;;;2.97;;
8652;SDS011;4364;52.426;9.424;2023-01-31T00:55:49;17.83;;;4.47;;
8652;SDS011;4364;52.426;9.424;2023-01-31T00:58:20;17.27;;;3.70;;
8652;SDS011;4364;52.426;9.424;2023-01-31T01:00:47;20.07;;;3.30;;
8652;SDS011;4364;52.426;9.424;2023-01-31T01:03:14;23.10;;;4.50;;
8652;SDS011;4364;52.426;9.424;2023-01-31T01:05:40;26.53;;;4.10;;
8652;SDS011;4364;52.426;9.424;2023-01-31T01:08:07;27.13;;;3.70;;
8652;SDS011;4364;52.426;9.424;2023-01-31T01:10:34;20.13;;;4.20;;
8652;SDS011;4364;52.426;9.424;2023-01-31T01:13:01;20.47;;;4.07;;
8652;SDS011;4364;52.426;9.424;2023-01-31T01:15:30;21.20;;;3.47;;
8652;SDS011;4364;52.426;9.424;2023-01-31T01:17:58;20.73;;;3.50;;
8652;SDS011;4364;52.426;9.424;2023-01-31T01:20:24;30.00;;;4.10;;
8652;SDS011;4364;52.426;9.424;2023-01-31T01:22:52;24.53;;;3.60;;
8652;SDS011;4364;52.426;9.424;2023-01-31T01:25:18;19.30;;;4.40;;
8652;SDS011;4364;52.426;9.424;2023-01-31T01:27:45;24.27;;;4.33;;
8652;SDS011;4364;52.426;9.424;2023-01-31T01:30:12;25.87;;;4.17;;
8652;SDS011;4364;52.426;9.424;2023-01-31T01:32:38;23.00;;;4.77;;
8652;SDS011;4364;52.426;9.424;2023-01-31T01:35:05;28.20;;;4.13;;
8652;SDS011;4364;52.426;9.424;2023-01-31T01:37:33;17.50;;;3.63;;
8652;SDS011;4364;52.426;9.424;2023-01-31T01:39:59;17.83;;;3.40;;
8652;SDS011;4364;52.426;9.424;2023-01-31T01:42:29;20.50;;;3.77;;
8652;SDS011;4364;52.426;9.424;2023-01-31T01:45:01;21.03;;;3.63;;
8652;SDS011;4364;52.426;9.424;2023-01-31T01:50:12;20.00;;;4.23;;
8652;SDS011;4364;52.426;9.424;2023-01-31T01:55:38;16.70;;;2.87;;
8652;SDS011;4364;52.426;9.424;2023-01-31T01:58:09;16.93;;;3.10;;
8652;SDS011;4364;52.426;9.424;2023-01-31T02:00:40;11.50;;;3.23;;
8652;SDS011;4364;52.426;9.424;2023-01-31T02:03:07;14.13;;;2.83;;
8652;SDS011;4364;52.426;9.424;2023-01-31T02:05:48;14.80;;;3.43;;
8652;SDS011;4364;52.426;9.424;2023-01-31T02:08:19;17.00;;;3.13;;
8652;SDS011;4364;52.426;9.424;2023-01-31T02:11:09;19.50;;;3.17;;
8652;SDS011;4364;52.426;9.424;2023-01-31T02:13:40;19.83;;;3.37;;
8652;SDS011;4364;52.426;9.424;2023-01-31T02:16:12;11.93;;;3.20;;
8652;SDS011;4364;52.426;9.424;2023-01-31T02:18:40;15.90;;;3.50;;
8652;SDS011;4364;52.426;9.424;2023-01-31T02:24:21;26.40;;;4.70;;
8652;SDS011;4364;52.426;9.424;2023-01-31T02:30:33;22.83;;;3.87;;
8652;SDS011;4364;52.426;9.424;2023-01-31T02:34:10;20.07;;;4.53;;
8652;SDS011;4364;52.426;9.424;2023-01-31T02:39:30;22.50;;;4.10;;
8652;SDS011;4364;52.426;9.424;2023-01-31T02:42:14;20.67;;;3.67;;
8652;SDS011;4364;52.426;9.424;2023-01-31T02:44:51;19.17;;;3.80;;
8652;SDS011;4364;52.426;9.424;2023-01-31T02:53:23;19.57;;;4.03;;
8652;SDS011;4364;52.426;9.424;2023-01-31T02:58:41;17.50;;;3.40;;
8652;SDS011;4364;52.426;9.424;2023-01-31T03:01:15;23.03;;;3.90;;
8652;SDS011;4364;52.426;9.424;2023-01-31T03:03:45;20.00;;;3.80;;
8652;SDS011;4364;52.426;9.424;2023-01-31T03:11:35;19.57;;;3.70;;
8652;SDS011;4364;52.426;9.424;2023-01-31T03:14:18;23.30;;;3.63;;
8652;SDS011;4364;52.426;9.424;2023-01-31T03:22:23;16.03;;;2.80;;
8652;SDS011;4364;52.426;9.424;2023-01-31T03:24:53;24.23;;;3.90;;
8652;SDS011;4364;52.426;9.424;2023-01-31T03:27:20;17.97;;;3.77;;
8652;SDS011;4364;52.426;9.424;2023-01-31T03:29:52;15.77;;;3.20;;
8652;SDS011;4364;52.426;9.424;2023-01-31T03:32:27;16.27;;;3.33;;
8652;SDS011;4364;52.426;9.424;2023-01-31T03:34:58;23.83;;;3.90;;
8652;SDS011;4364;52.426;9.424;2023-01-31T03:40:15;23.10;;;3.90;;
8652;SDS011;4364;52.426;9.424;2023-01-31T03:42:49;28.60;;;3.60;;
8652;SDS011;4364;52.426;9.424;2023-01-31T03:45:44;16.20;;;3.27;;
8652;SDS011;4364;52.426;9.424;2023-01-31T03:48:17;17.17;;;3.57;;
8652;SDS011;4364;52.426;9.424;2023-01-31T03:51:03;23.33;;;3.60;;
8652;SDS011;4364;52.426;9.424;2023-01-31T03:53:40;14.50;;;3.07;;
8652;SDS011;4364;52.426;9.424;2023-01-31T03:56:16;18.83;;;2.90;;
8652;SDS011;4364;52.426;9.424;2023-01-31T03:58:48;18.37;;;2.93;;
8652;SDS011;4364;52.426;9.424;2023-01-31T04:01:19;13.63;;;3.10;;
8652;SDS011;4364;52.426;9.424;2023-01-31T04:03:53;16.80;;;3.00;;
8652;SDS011;4364;52.426;9.424;2023-01-31T04:06:23;21.10;;;3.17;;
8652;SDS011;4364;52.426;9.424;2023-01-31T04:08:50;22.47;;;3.27;;
8652;SDS011;4364;52.426;9.424;2023-01-31T04:11:18;15.67;;;3.70;;
8652;SDS011;4364;52.426;9.424;2023-01-31T04:13:46;19.83;;;3.40;;
8652;SDS011;4364;52.426;9.424;2023-01-31T04:16:13;17.53;;;3.00;;
8652;SDS011;4364;52.426;9.424;2023-01-31T04:18:40;15.30;;;3.03;;
8652;SDS011;4364;52.426;9.424;2023-01-31T04:21:06;16.53;;;3.03;;
8652;SDS011;4364;52.426;9.424;2023-01-31T04:23:33;19.07;;;3.10;;
8652;SDS011;4364;52.426;9.424;2023-01-31T04:25:59;14.87;;;2.67;;
8652;SDS011;4364;52.426;9.424;2023-01-31T04:28:26;15.50;;;3.00;;
8652;SDS011;4364;52.426;9.424;2023-01-31T04:30:53;24.60;;;3.97;;
8652;SDS011;4364;52.426;9.424;2023-01-31T04:33:21;19.97;;;3.00;;
8652;SDS011;4364;52.426;9.424;2023-01-31T04:35:49;16.33;;;3.07;;
8652;SDS011;4364;52.426;9.424;2023-01-31T04:38:16;18.90;;;3.03;;
8652;SDS011;4364;52.426;9.424;2023-01-31T04:40:43;20.17;;;3.20;;
8652;SDS011;4364;52.426;9.424;2023-01-31T04:43:10;20.27;;;2.73;;
8652;SDS011;4364;52.426;9.424;2023-01-31T04:45:37;16.13;;;3.60;;
8652;SDS011;4364;52.426;9.424;2023-01-31T04:48:03;19.73;;;2.70;;
8652;SDS011;4364;52.426;9.424;2023-01-31T04:50:30;13.57;;;2.80;;
8652;SDS011;4364;52.426;9.424;2023-01-31T04:52:57;16.03;;;3.43;;
8652;SDS011;4364;52.426;9.424;2023-01-31T04:55:23;16.17;;;3.27;;
8652;SDS011;4364;52.426;9.424;2023-01-31T04:57:49;18.40;;;3.17;;
8652;SDS011;4364;52.426;9.424;2023-01-31T05:00:16;16.40;;;3.40;;
8652;SDS011;4364;52.426;9.424;2023-01-31T05:02:43;27.30;;;3.57;;
8652;SDS011;4364;52.426;9.424;2023-01-31T05:05:10;17.53;;;3.17;;
8652;SDS011;4364;52.426;9.424;2023-01-31T05:07:38;16.57;;;3.53;;
8652;SDS011;4364;52.426;9.424;2023-01-31T05:10:05;19.73;;;3.53;;
8652;SDS011;4364;52.426;9.424;2023-01-31T05:12:31;16.17;;;3.73;;
8652;SDS011;4364;52.426;9.424;2023-01-31T05:14:58;19.17;;;3.60;;
8652;SDS011;4364;52.426;9.424;2023-01-31T05:17:24;13.80;;;3.20;;
8652;SDS011;4364;52.426;9.424;2023-01-31T05:19:51;16.47;;;3.23;;
8652;SDS011;4364;52.426;9.424;2023-01-31T05:22:17;17.13;;;3.60;;
8652;SDS011;4364;52.426;9.424;2023-01-31T05:24:47;18.70;;;3.73;;
8652;SDS011;4364;52.426;9.424;2023-01-31T05:27:15;17.40;;;3.80;;
8652;SDS011;4364;52.426;9.424;2023-01-31T05:29:42;21.93;;;3.40;;
8652;SDS011;4364;52.426;9.424;2023-01-31T05:32:09;21.33;;;4.17;;
8652;SDS011;4364;52.426;9.424;2023-01-31T05:34:36;20.47;;;3.27;;
8652;SDS011;4364;52.426;9.424;2023-01-31T05:37:03;15.90;;;3.30;;
8652;SDS011;4364;52.426;9.424;2023-01-31T05:39:30;17.77;;;3.97;;
8652;SDS011;4364;52.426;9.424;2023-01-31T05:41:57;16.57;;;3.97;;
8652;SDS011;4364;52.426;9.424;2023-01-31T05:44:24;19.03;;;4.70;;
8652;SDS011;4364;52.426;9.424;2023-01-31T05:46:50;18.13;;;3.37;;
8652;SDS011;4364;52.426;9.424;2023-01-31T05:49:17;20.93;;;4.33;;
8652;SDS011;4364;52.426;9.424;2023-01-31T05:51:43;23.60;;;4.43;;
8652;SDS011;4364;52.426;9.424;2023-01-31T05:54:10;22.17;;;6.10;;
8652;SDS011;4364;52.426;9.424;2023-01-31T05:56:36;21.80;;;3.97;;
8652;SDS011;4364;52.426;9.424;2023-01-31T05:59:04;21.93;;;6.73;;
8652;SDS011;4364;52.426;9.424;2023-01-31T06:01:31;16.13;;;5.87;;
8652;SDS011;4364;52.426;9.424;2023-01-31T06:03:57;17.40;;;4.80;;
8652;SDS011;4364;52.426;9.424;2023-01-31T06:06:24;19.10;;;4.77;;
8652;SDS011;4364;52.426;9.424;2023-01-31T06:08:51;24.70;;;5.57;;
8652;SDS011;4364;52.426;9.424;2023-01-31T06:11:17;16.90;;;5.10;;
8652;SDS011;4364;52.426;9.424;2023-01-31T06:13:44;16.97;;;4.27;;
8652;SDS011;4364;52.426;9.424;2023-01-31T06:16:10;16.53;;;4.73;;
8652;SDS011;4364;52.426;9.424;2023-01-31T06:18:37;14.23;;;4.47;;
8652;SDS011;4364;52.426;9.424;2023-01-31T06:21:04;19.10;;;4.00;;
8652;SDS011;4364;52.426;9.424;2023-01-31T06:23:31;20.90;;;3.63;;
8652;SDS011;4364;52.426;9.424;2023-01-31T06:25:59;18.73;;;4.23;;
8652;SDS011;4364;52.426;9.424;2023-01-31T06:28:28;23.30;;;4.90;;
8652;SDS011;4364;52.426;9.424;2023-01-31T06:30:54;19.37;;;3.97;;
8652;SDS011;4364;52.426;9.424;2023-01-31T06:33:21;18.30;;;4.50;;
8652;SDS011;4364;52.426;9.424;2023-01-31T06:36:03;20.00;;;4.70;;
8652;SDS011;4364;52.426;9.424;2023-01-31T06:38:30;18.53;;;4.10;;
8652;SDS011;4364;52.426;9.424;2023-01-31T06:40:57;18.80;;;4.80;;
8652;SDS011;4364;52.426;9.424;2023-01-31T06:43:23;19.63;;;4.37;;
8652;SDS011;4364;52.426;9.424;2023-01-31T06:45:51;21.13;;;4.33;;
8652;SDS011;4364;52.426;9.424;2023-01-31T06:48:17;14.60;;;4.13;;
8652;SDS011;4364;52.426;9.424;2023-01-31T06:50:46;22.43;;;4.97;;
8652;SDS011;4364;52.426;9.424;2023-01-31T06:53:13;18.93;;;4.57;;
8652;SDS011;4364;52.426;9.424;2023-01-31T06:55:39;22.27;;;4.97;;
8652;SDS011;4364;52.426;9.424;2023-01-31T06:58:13;20.93;;;5.53;;
8652;SDS011;4364;52.426;9.424;2023-01-31T07:00:39;20.87;;;6.00;;
8652;SDS011;4364;52.426;9.424;2023-01-31T07:03:06;18.00;;;6.00;;
8652;SDS011;4364;52.426;9.424;2023-01-31T07:05:32;24.80;;;6.30;;
8652;SDS011;4364;52.426;9.424;2023-01-31T07:07:58;18.90;;;6.20;;
8652;SDS011;4364;52.426;9.424;2023-01-31T07:10:25;25.57;;;7.60;;
8652;SDS011;4364;52.426;9.424;2023-01-31T07:12:51;23.77;;;6.67;;
8652;SDS011;4364;52.426;9.424;2023-01-31T07:15:18;23.37;;;6.93;;
8652;SDS011;4364;52.426;9.424;2023-01-31T07:17:45;21.30;;;6.27;;
8652;SDS011;4364;52.426;9.424;2023-01-31T07:20:11;21.33;;;6.67;;
8652;SDS011;4364;52.426;9.424;2023-01-31T07:22:38;19.57;;;5.83;;
8652;SDS011;4364;52.426;9.424;2023-01-31T07:25:04;26.17;;;8.00;;
8652;SDS011;4364;52.426;9.424;2023-01-31T07:27:31;26.43;;;8.40;;
8652;SDS011;4364;52.426;9.424;2023-01-31T07:29:57;22.07;;;7.00;;
8652;SDS011;4364;52.426;9.424;2023-01-31T07:32:27;24.97;;;7.70;;
8652;SDS011;4364;52.426;9.424;2023-01-31T07:34:55;25.43;;;7.40;;
8652;SDS011;4364;52.426;9.424;2023-01-31T07:37:21;24.50;;;7.67;;
8652;SDS011;4364;52.426;9.424;2023-01-31T07:39:48;24.33;;;8.20;;
8652;SDS011;4364;52.426;9.424;2023-01-31T07:42:15;19.77;;;7.60;;
8652;SDS011;4364;52.426;9.424;2023-01-31T07:44:42;29.90;;;8.10;;
8652;SDS011;4364;52.426;9.424;2023-01-31T07:47:08;24.50;;;8.50;;
8652;SDS011;4364;52.426;9.424;2023-01-31T07:49:35;24.87;;;7.50;;
8652;SDS011;4364;52.426;9.424;2023-01-31T07:52:06;22.10;;;8.23;;
8652;SDS011;4364;52.426;9.424;2023-01-31T07:54:34;23.70;;;8.97;;
8652;SDS011;4364;52.426;9.424;2023-01-31T07:57:01;21.80;;;8.50;;
8652;SDS011;4364;52.426;9.424;2023-01-31T07:59:30;24.50;;;8.20;;
8652;SDS011;4364;52.426;9.424;2023-01-31T08:01:57;26.80;;;9.23;;
8652;SDS011;4364;52.426;9.424;2023-01-31T08:04:42;22.30;;;7.40;;
8652;SDS011;4364;52.426;9.424;2023-01-31T08:07:08;24.07;;;7.97;;
8652;SDS011;4364;52.426;9.424;2023-01-31T08:09:35;26.67;;;8.77;;
8652;SDS011;4364;52.426;9.424;2023-01-31T08:12:02;20.20;;;8.10;;
8652;SDS011;4364;52.426;9.424;2023-01-31T08:14:28;22.07;;;8.13;;
8652;SDS011;4364;52.426;9.424;2023-01-31T08:16:56;25.77;;;8.20;;
8652;SDS011;4364;52.426;9.424;2023-01-31T08:19:22;26.07;;;8.37;;
8652;SDS011;4364;52.426;9.424;2023-01-31T08:21:49;22.97;;;9.10;;
8652;SDS011;4364;52.426;9.424;2023-01-31T08:24:15;23.47;;;7.97;;
8652;SDS011;4364;52.426;9.424;2023-01-31T08:26:42;22.33;;;8.27;;
8652;SDS011;4364;52.426;9.424;2023-01-31T08:29:09;22.73;;;8.37;;
8652;SDS011;4364;52.426;9.424;2023-01-31T08:31:36;31.00;;;8.90;;
8652;SDS011;4364;52.426;9.424;2023-01-31T08:34:02;25.37;;;9.33;;
8652;SDS011;4364;52.426;9.424;2023-01-31T08:36:30;20.37;;;8.37;;
8652;SDS011;4364;52.426;9.424;2023-01-31T08:38:57;25.57;;;9.93;;
8652;SDS011;4364;52.426;9.424;2023-01-31T08:41:24;33.33;;;10.03;;
8652;SDS011;4364;52.426;9.424;2023-01-31T08:43:51;22.83;;;9.63;;
8652;SDS011;4364;52.426;9.424;2023-01-31T08:46:24;29.07;;;9.67;;
8652;SDS011;4364;52.426;9.424;2023-01-31T08:48:53;26.37;;;10.13;;
8652;SDS011;4364;52.426;9.424;2023-01-31T08:51:19;27.53;;;10.10;;
8652;SDS011;4364;52.426;9.424;2023-01-31T08:53:47;33.33;;;11.80;;
8652;SDS011;4364;52.426;9.424;2023-01-31T08:56:14;23.40;;;9.87;;
8652;SDS011;4364;52.426;9.424;2023-01-31T08:58:41;24.30;;;10.40;;
8652;SDS011;4364;52.426;9.424;2023-01-31T09:01:10;27.87;;;10.90;;
8652;SDS011;4364;52.426;9.424;2023-01-31T09:03:38;28.20;;;10.23;;
8652;SDS011;4364;52.426;9.424;2023-01-31T09:06:06;31.30;;;11.40;;
8652;SDS011;4364;52.426;9.424;2023-01-31T09:08:35;20.97;;;9.97;;
8652;SDS011;4364;52.426;9.424;2023-01-31T09:11:02;25.13;;;9.97;;
8652;SDS011;4364;52.426;9.424;2023-01-31T09:13:30;25.93;;;10.77;;
8652;SDS011;4364;52.426;9.424;2023-01-31T09:15:58;31.27;;;10.70;;
8652;SDS011;4364;52.426;9.424;2023-01-31T09:18:26;26.63;;;10.83;;
8652;SDS011;4364;52.426;9.424;2023-01-31T09:20:52;26.50;;;10.83;;
8652;SDS011;4364;52.426;9.424;2023-01-31T09:23:19;24.80;;;10.43;;
8652;SDS011;4364;52.426;9.424;2023-01-31T09:25:55;30.90;;;10.83;;
8652;SDS011;4364;52.426;9.424;2023-01-31T09:28:22;28.70;;;11.63;;
8652;SDS011;4364;52.426;9.424;2023-01-31T09:30:49;23.43;;;10.70;;
8652;SDS011;4364;52.426;9.424;2023-01-31T09:33:19;26.60;;;12.27;;
8652;SDS011;4364;52.426;9.424;2023-01-31T09:35:56;29.90;;;11.90;;
8652;SDS011;4364;52.426;9.424;2023-01-31T09:38:24;29.00;;;12.00;;
8652;SDS011;4364;52.426;9.424;2023-01-31T09:40:50;28.13;;;12.80;;
8652;SDS011;4364;52.426;9.424;2023-01-31T09:43:19;29.50;;;13.13;;
8652;SDS011;4364;52.426;9.424;2023-01-31T09:45:50;25.07;;;11.80;;
8652;SDS011;4364;52.426;9.424;2023-01-31T09:48:21;24.93;;;12.33;;
8652;SDS011;4364;52.426;9.424;2023-01-31T09:50:52;22.07;;;10.70;;
8652;SDS011;4364;52.426;9.424;2023-01-31T09:53:22;26.83;;;11.90;;
8652;SDS011;4364;52.426;9.424;2023-01-31T10:06:32;19.13;;;11.53;;
8652;SDS011;4364;52.426;9.424;2023-01-31T10:09:09;22.03;;;11.17;;
8652;SDS011;4364;52.426;9.424;2023-01-31T10:11:47;20.50;;;10.40;;
8652;SDS011;4364;52.426;9.424;2023-01-31T10:19:41;20.63;;;9.73;;
8652;SDS011;4364;52.426;9.424;2023-01-31T10:22:12;21.33;;;9.30;;
8652;SDS011;4364;52.426;9.424;2023-01-31T10:24:48;19.53;;;9.17;;
8652;SDS011;4364;52.426;9.424;2023-01-31T10:30:34;25.87;;;9.53;;
8652;SDS011;4364;52.426;9.424;2023-01-31T10:33:15;21.63;;;9.03;;
8652;SDS011;4364;52.426;9.424;2023-01-31T10:35:52;25.73;;;8.73;;
8652;SDS011;4364;52.426;9.424;2023-01-31T10:38:24;23.17;;;9.33;;
8652;SDS011;4364;52.426;9.424;2023-01-31T10:41:20;18.43;;;8.87;;
8652;SDS011;4364;52.426;9.424;2023-01-31T10:43:56;19.23;;;8.73;;
8652;SDS011;4364;52.426;9.424;2023-01-31T10:46:27;21.10;;;8.83;;
8652;SDS011;4364;52.426;9.424;2023-01-31T10:48:54;19.03;;;9.83;;
8652;SDS011;4364;52.426;9.424;2023-01-31T10:51:25;19.33;;;9.47;;
8652;SDS011;4364;52.426;9.424;2023-01-31T10:57:07;21.70;;;8.87;;
8652;SDS011;4364;52.426;9.424;2023-01-31T10:59:35;24.40;;;9.47;;
8652;SDS011;4364;52.426;9.424;2023-01-31T11:02:03;22.03;;;9.50;;
8652;SDS011;4364;52.426;9.424;2023-01-31T11:04:40;27.63;;;9.90;;
8652;SDS011;4364;52.426;9.424;2023-01-31T11:07:08;23.83;;;9.70;;
8652;SDS011;4364;52.426;9.424;2023-01-31T11:09:41;20.17;;;9.27;;
8652;SDS011;4364;52.426;9.424;2023-01-31T11:12:12;19.67;;;9.43;;
8652;SDS011;4364;52.426;9.424;2023-01-31T11:14:39;25.00;;;10.00;;
8652;SDS011;4364;52.426;9.424;2023-01-31T11:17:13;21.73;;;9.83;;
8652;SDS011;4364;52.426;9.424;2023-01-31T11:19:47;20.90;;;9.70;;
8652;SDS011;4364;52.426;9.424;2023-01-31T11:22:24;28.20;;;11.40;;
8652;SDS011;4364;52.426;9.424;2023-01-31T11:24:54;24.30;;;10.27;;
8652;SDS011;4364;52.426;9.424;2023-01-31T11:30:24;20.07;;;9.23;;
8652;SDS011;4364;52.426;9.424;2023-01-31T11:33:01;21.87;;;11.03;;
8652;SDS011;4364;52.426;9.424;2023-01-31T11:35:32;29.53;;;10.57;;
8652;SDS011;4364;52.426;9.424;2023-01-31T11:38:02;26.63;;;10.60;;
8652;SDS011;4364;52.426;9.424;2023-01-31T11:40:47;27.93;;;10.70;;
8652;SDS011;4364;52.426;9.424;2023-01-31T11:45:53;17.33;;;10.37;;
8652;SDS011;4364;52.426;9.424;2023-01-31T11:48:22;23.63;;;10.37;;
8652;SDS011;4364;52.426;9.424;2023-01-31T11:50:53;26.00;;;11.07;;
8652;SDS011;4364;52.426;9.424;2023-01-31T11:53:22;27.73;;;11.03;;
8652;SDS011;4364;52.426;9.424;2023-01-31T11:55:52;29.20;;;11.07;;
8652;SDS011;4364;52.426;9.424;2023-01-31T11:58:30;25.57;;;11.20;;
8652;SDS011;4364;52.426;9.424;2023-01-31T12:03:28;27.77;;;12.03;;
8652;SDS011;4364;52.426;9.424;2023-01-31T12:06:03;25.20;;;11.27;;
8652;SDS011;4364;52.426;9.424;2023-01-31T12:08:34;21.77;;;10.83;;
8652;SDS011;4364;52.426;9.424;2023-01-31T12:11:04;23.63;;;10.33;;
8652;SDS011;4364;52.426;9.424;2023-01-31T12:16:13;22.10;;;10.37;;
8652;SDS011;4364;52.426;9.424;2023-01-31T12:21:41;25.57;;;10.63;;
8652;SDS011;4364;52.426;9.424;2023-01-31T12:27:12;23.30;;;11.33;;
8652;SDS011;4364;52.426;9.424;2023-01-31T12:29:49;23.03;;;10.70;;
8652;SDS011;4364;52.426;9.424;2023-01-31T12:35:38;18.40;;;9.97;;
8652;SDS011;4364;52.426;9.424;2023-01-31T12:40:50;26.03;;;12.17;;
8652;SDS011;4364;52.426;9.424;2023-01-31T12:51:35;23.33;;;11.47;;
8652;SDS011;4364;52.426;9.424;2023-01-31T12:54:14;18.77;;;12.23;;
8652;SDS011;4364;52.426;9.424;2023-01-31T13:05:50;31.77;;;13.70;;
8652;SDS011;4364;52.426;9.424;2023-01-31T13:08:20;25.17;;;14.40;;
8652;SDS011;4364;52.426;9.424;2023-01-31T13:11:04;24.77;;;13.37;;
8652;SDS011;4364;52.426;9.424;2023-01-31T13:16:34;26.17;;;14.33;;
8652;SDS011;4364;52.426;9.424;2023-01-31T13:19:24;26.70;;;15.33;;
8652;SDS011;4364;52.426;9.424;2023-01-31T13:21:57;33.70;;;15.87;;
8652;SDS011;4364;52.426;9.424;2023-01-31T13:24:28;31.20;;;16.43;;
8652;SDS011;4364;52.426;9.424;2023-01-31T13:27:02;29.23;;;17.10;;
8652;SDS011;4364;52.426;9.424;2023-01-31T13:29:39;27.20;;;17.00;;
8652;SDS011;4364;52.426;9.424;2023-01-31T13:32:19;34.17;;;17.80;;
8652;SDS011;4364;52.426;9.424;2023-01-31T13:38:02;30.27;;;18.07;;
8652;SDS011;4364;52.426;9.424;2023-01-31T13:40:35;30.40;;;17.90;;
8652;SDS011;4364;52.426;9.424;2023-01-31T13:43:14;30.00;;;17.73;;
8652;SDS011;4364;52.426;9.424;2023-01-31T13:45:42;27.40;;;16.77;;
8652;SDS011;4364;52.426;9.424;2023-01-31T13:50:45;36.07;;;17.90;;
8652;SDS011;4364;52.426;9.424;2023-01-31T13:53:20;24.90;;;16.33;;
8652;SDS011;4364;52.426;9.424;2023-01-31T13:56:08;29.43;;;17.17;;
8652;SDS011;4364;52.426;9.424;2023-01-31T13:58:42;27.03;;;16.77;;
8652;SDS011;4364;52.426;9.424;2023-01-31T14:01:17;28.30;;;16.10;;
8652;SDS011;4364;52.426;9.424;2023-01-31T14:11:59;22.17;;;15.20;;
8652;SDS011;4364;52.426;9.424;2023-01-31T14:17:04;28.83;;;15.33;;
8652;SDS011;4364;52.426;9.424;2023-01-31T14:27:22;22.03;;;12.80;;
8652;SDS011;4364;52.426;9.424;2023-01-31T14:32:41;24.73;;;12.00;;
8652;SDS011;4364;52.426;9.424;2023-01-31T14:35:23;17.33;;;11.30;;
8652;SDS011;4364;52.426;9.424;2023-01-31T14:38:07;20.93;;;11.63;;
8652;SDS011;4364;52.426;9.424;2023-01-31T14:41:02;17.33;;;11.20;;
8652;SDS011;4364;52.426;9.424;2023-01-31T14:52:20;13.57;;;9.70;;
8652;SDS011;4364;52.426;9.424;2023-01-31T14:54:57;16.73;;;9.47;;
8652;SDS011;4364;52.426;9.424;2023-01-31T14:57:38;12.70;;;9.30;;
8652;SDS011;4364;52.426;9.424;2023-01-31T15:05:16;15.03;;;9.80;;
8652;SDS011;4364;52.426;9.424;2023-01-31T15:16:15;15.73;;;10.07;;
8652;SDS011;4364;52.426;9.424;2023-01-31T15:18:45;17.00;;;9.33;;
8652;SDS011;4364;52.426;9.424;2023-01-31T15:21:22;15.53;;;9.70;;
8652;SDS011;4364;52.426;9.424;2023-01-31T15:23:56;12.20;;;9.87;;
8652;SDS011;4364;52.426;9.424;2023-01-31T15:26:26;13.10;;;10.07;;
8652;SDS011;4364;52.426;9.424;2023-01-31T15:28:57;15.33;;;10.07;;
8652;SDS011;4364;52.426;9.424;2023-01-31T15:31:30;16.37;;;11.07;;
8652;SDS011;4364;52.426;9.424;2023-01-31T15:34:04;21.47;;;11.47;;
8652;SDS011;4364;52.426;9.424;2023-01-31T15:36:51;16.93;;;11.37;;
8652;SDS011;4364;52.426;9.424;2023-01-31T15:39:35;17.43;;;11.57;;
8652;SDS011;4364;52.426;9.424;2023-01-31T15:42:20;19.50;;;11.53;;
8652;SDS011;4364;52.426;9.424;2023-01-31T15:47:42;15.87;;;11.43;;
8652;SDS011;4364;52.426;9.424;2023-01-31T15:50:19;18.37;;;10.87;;
8652;SDS011;4364;52.426;9.424;2023-01-31T15:52:47;16.70;;;11.10;;
8652;SDS011;4364;52.426;9.424;2023-01-31T15:55:14;17.00;;;11.60;;
8652;SDS011;4364;52.426;9.424;2023-01-31T15:57:50;19.60;;;12.53;;
8652;SDS011;4364;52.426;9.424;2023-01-31T16:02:51;16.37;;;11.10;;
8652;SDS011;4364;52.426;9.424;2023-01-31T16:05:29;18.03;;;11.63;;
8652;SDS011;4364;52.426;9.424;2023-01-31T16:07:58;19.00;;;11.67;;
8652;SDS011;4364;52.426;9.424;2023-01-31T16:10:27;15.33;;;10.23;;
8652;SDS011;4364;52.426;9.424;2023-01-31T16:12:56;19.33;;;11.40;;
8652;SDS011;4364;52.426;9.424;2023-01-31T16:15:24;16.30;;;10.37;;
8652;SDS011;4364;52.426;9.424;2023-01-31T16:17:54;19.00;;;10.27;;
8652;SDS011;4364;52.426;9.424;2023-01-31T16:23:24;20.23;;;9.90;;
8652;SDS011;4364;52.426;9.424;2023-01-31T16:26:00;10.83;;;5.37;;
8652;SDS011;4364;52.426;9.424;2023-01-31T16:28:35;8.77;;;4.17;;
8652;SDS011;4364;52.426;9.424;2023-01-31T16:31:13;15.60;;;5.80;;
8652;SDS011;4364;52.426;9.424;2023-01-31T16:33:46;10.77;;;6.17;;
8652;SDS011;4364;52.426;9.424;2023-01-31T16:36:17;15.03;;;7.20;;
8652;SDS011;4364;52.426;9.424;2023-01-31T16:39:27;11.70;;;6.30;;
8652;SDS011;4364;52.426;9.424;2023-01-31T16:41:54;15.67;;;6.27;;
8652;SDS011;4364;52.426;9.424;2023-01-31T16:44:23;13.43;;;6.60;;
8652;SDS011;4364;52.426;9.424;2023-01-31T16:46:54;16.33;;;6.50;;
8652;SDS011;4364;52.426;9.424;2023-01-31T16:49:25;18.10;;;7.23;;
8652;SDS011;4364;52.426;9.424;2023-01-31T16:51:57;15.07;;;5.87;;
8652;SDS011;4364;52.426;9.424;2023-01-31T16:54:48;13.70;;;5.47;;
8652;SDS011;4364;52.426;9.424;2023-01-31T16:57:23;12.67;;;5.33;;
8652;SDS011;4364;52.426;9.424;2023-01-31T17:00:05;8.83;;;4.53;;
8652;SDS011;4364;52.426;9.424;2023-01-31T17:02:53;12.30;;;5.13;;
8652;SDS011;4364;52.426;9.424;2023-01-31T17:05:34;8.20;;;3.57;;
8652;SDS011;4364;52.426;9.424;2023-01-31T17:08:04;10.53;;;3.70;;
8652;SDS011;4364;52.426;9.424;2023-01-31T17:10:36;18.90;;;6.23;;
8652;SDS011;4364;52.426;9.424;2023-01-31T17:13:05;14.90;;;6.80;;
8652;SDS011;4364;52.426;9.424;2023-01-31T17:15:39;20.37;;;10.80;;
8652;SDS011;4364;52.426;9.424;2023-01-31T17:18:08;19.00;;;11.03;;
8652;SDS011;4364;52.426;9.424;2023-01-31T17:20:36;26.10;;;17.13;;
8652;SDS011;4364;52.426;9.424;2023-01-31T17:23:06;11.83;;;6.77;;
8652;SDS011;4364;52.426;9.424;2023-01-31T17:25:33;13.53;;;7.57;;
8652;SDS011;4364;52.426;9.424;2023-01-31T17:28:02;19.10;;;11.70;;
8652;SDS011;4364;52.426;9.424;2023-01-31T17:30:29;16.30;;;8.40;;
8652;SDS011;4364;52.426;9.424;2023-01-31T17:32:57;18.10;;;7.07;;
8652;SDS011;4364;52.426;9.424;2023-01-31T17:35:25;13.30;;;7.30;;
8652;SDS011;4364;52.426;9.424;2023-01-31T17:38:04;11.77;;;5.23;;
8652;SDS011;4364;52.426;9.424;2023-01-31T17:40:30;14.03;;;5.97;;
8652;SDS011;4364;52.426;9.424;2023-01-31T17:43:02;12.93;;;4.77;;
8652;SDS011;4364;52.426;9.424;2023-01-31T17:45:29;9.83;;;4.70;;
8652;SDS011;4364;52.426;9.424;2023-01-31T17:47:57;14.60;;;4.27;;
8652;SDS011;4364;52.426;9.424;2023-01-31T17:50:24;14.67;;;4.73;;
8652;SDS011;4364;52.426;9.424;2023-01-31T17:52:52;13.80;;;4.90;;
8652;SDS011;4364;52.426;9.424;2023-01-31T17:55:20;18.00;;;3.60;;
8652;SDS011;4364;52.426;9.424;2023-01-31T17:57:49;9.80;;;3.30;;
8652;SDS011;4364;52.426;9.424;2023-01-31T18:00:16;13.63;;;2.97;;